PWSweather.com
Personal Weather Stations
Station Observations
ICAMBRID16
ChatterisGB PE16 6AY

ChatterisGB PE16 6AY

Lat: 52.45616, Lon: 0.05771

Elevation: 17

Station Type: Davis Vantage Pro 2

https://www.chatteris.biz

Latest ConditionsUpdated 12:38:41 PM GMT Monday, Jun 24, 2019
Currently Today's Max Today's Min Today's Average
Temperature 73.8°F23.2°C 75.0°F23.9°C 59.0°F15.0°C 66.5°F19.2°C
Dew Point 67.6°F19.8°C 67.8°F19.9°C 57.2°F14.0°C 62.0°F16.7°C
Winds 6.0 mph WNW9.7 kmh WNW 6.0 mph -9.7 kmh - - 2.1 mph 3.4 kmh
Wind Gusts 10.1 mph16.3 kmh 10.1 mph16.3 kmh - -
Humidity 81% 94% 77% 86%
Pressure 29.96 in1014.6 mb 29.96 in1014.6 mb 29.90 in1012.5 mb -
Hour Temp Dew Point Humidity Winds Wind Gusts Pressure Precip Precip Rate Daily Precip Total
12:38 PM 73.8°F23.2°C 67.6°F19.8°C 81% 6.0 mph WNW9.7 kmh WNW 10.1 mph16.3 kmh 29.96 in1014.6 mb 0.00 in0.0 mm 0.00 in0.0 mm 0.00 in0.0 mm
12:08 PM 74.5°F23.6°C 67.8°F19.9°C 80% 4.0 mph W6.4 kmh W 8.1 mph13.0 kmh 29.96 in1014.6 mb 0.00 in0.0 mm 0.00 in0.0 mm 0.00 in0.0 mm
11:38 AM 74.1°F23.4°C 67.6°F19.8°C 80% 4.0 mph NNW6.4 kmh NNW 6.0 mph9.7 kmh 29.93 in1013.5 mb 0.00 in0.0 mm 0.00 in0.0 mm 0.00 in0.0 mm
11:08 AM 75.0°F23.9°C 67.3°F19.6°C 77% 2.0 mph N3.2 kmh N 4.0 mph6.4 kmh 29.93 in1013.5 mb 0.00 in0.0 mm 0.00 in0.0 mm 0.00 in0.0 mm
10:38 AM 75.0°F23.9°C 67.3°F19.6°C 77% 2.0 mph NNE3.2 kmh NNE 4.0 mph6.4 kmh 29.94 in1013.9 mb 0.00 in0.0 mm 0.00 in0.0 mm 0.00 in0.0 mm
10:08 AM 74.3°F23.5°C 66.6°F19.2°C 77% 0.9 mph NNE1.4 kmh NNE 4.0 mph6.4 kmh 29.93 in1013.5 mb 0.00 in0.0 mm 0.00 in0.0 mm 0.00 in0.0 mm
09:38 AM 72.9°F22.7°C 66.4°F19.1°C 80% 2.0 mph 3.2 kmh 5.0 mph8.0 kmh 29.94 in1013.9 mb 0.00 in0.0 mm 0.00 in0.0 mm 0.00 in0.0 mm
09:08 AM 73.0°F22.8°C 65.8°F18.8°C 78% 2.0 mph N3.2 kmh N 6.0 mph9.7 kmh 29.93 in1013.5 mb 0.00 in0.0 mm 0.00 in0.0 mm 0.00 in0.0 mm
08:38 AM 72.1°F22.3°C 65.3°F18.5°C 79% 2.9 mph 4.7 kmh 6.0 mph9.7 kmh 29.93 in1013.5 mb 0.00 in0.0 mm 0.00 in0.0 mm 0.00 in0.0 mm
08:08 AM 72.3°F22.4°C 64.8°F18.2°C 77% 2.0 mph NW3.2 kmh NW 5.0 mph8.0 kmh 29.92 in1013.2 mb 0.00 in0.0 mm 0.00 in0.0 mm 0.00 in0.0 mm
07:38 AM 70.5°F21.4°C 63.7°F17.6°C 79% 2.0 mph N3.2 kmh N 6.0 mph9.7 kmh 29.92 in1013.2 mb 0.00 in0.0 mm 0.00 in0.0 mm 0.00 in0.0 mm
07:08 AM 67.8°F19.9°C 63.1°F17.3°C 85% 2.0 mph N3.2 kmh N 4.0 mph6.4 kmh 29.92 in1013.2 mb 0.00 in0.0 mm 0.00 in0.0 mm 0.00 in0.0 mm
06:38 AM 64.8°F18.2°C 61.5°F16.4°C 89% 0.9 mph NE1.4 kmh NE 3.0 mph4.8 kmh 29.92 in1013.2 mb 0.00 in0.0 mm 0.00 in0.0 mm 0.00 in0.0 mm
06:08 AM 63.1°F17.3°C 60.4°F15.8°C 91% 0.9 mph N1.4 kmh N 4.0 mph6.4 kmh 29.91 in1012.9 mb 0.00 in0.0 mm 0.00 in0.0 mm 0.00 in0.0 mm
05:38 AM 61.9°F16.6°C 59.5°F15.3°C 92% 2.9 mph NNE4.7 kmh NNE 6.0 mph9.7 kmh 29.91 in1012.9 mb 0.00 in0.0 mm 0.00 in0.0 mm 0.00 in0.0 mm
05:08 AM 61.5°F16.4°C 58.8°F14.9°C 91% 2.9 mph 4.7 kmh 7.0 mph11.3 kmh 29.92 in1013.2 mb 0.00 in0.0 mm 0.00 in0.0 mm 0.00 in0.0 mm
04:38 AM 60.4°F15.8°C 58.5°F14.7°C 93% 2.0 mph N3.2 kmh N 3.0 mph4.8 kmh 29.91 in1012.9 mb 0.00 in0.0 mm 0.00 in0.0 mm 0.00 in0.0 mm
04:08 AM 59.4°F15.2°C 57.6°F14.2°C 94% Calm Calm 3.0 mph4.8 kmh 29.90 in1012.5 mb 0.00 in0.0 mm 0.00 in0.0 mm 0.00 in0.0 mm
03:38 AM 59.0°F15.0°C 57.2°F14.0°C 94% 0.9 mph N1.4 kmh N 5.0 mph8.0 kmh 29.91 in1012.9 mb 0.00 in0.0 mm 0.00 in0.0 mm 0.00 in0.0 mm
03:08 AM 59.4°F15.2°C 57.4°F14.1°C 93% 2.0 mph 3.2 kmh 4.0 mph6.4 kmh 29.91 in1012.9 mb 0.00 in0.0 mm 0.00 in0.0 mm 0.00 in0.0 mm
02:38 AM 59.9°F15.5°C 57.9°F14.4°C 93% 0.9 mph N1.4 kmh N 3.0 mph4.8 kmh 29.91 in1012.9 mb 0.00 in0.0 mm 0.00 in0.0 mm 0.00 in0.0 mm
02:08 AM 60.1°F15.6°C 57.7°F14.3°C 92% 2.0 mph N3.2 kmh N 4.0 mph6.4 kmh 29.91 in1012.9 mb 0.00 in0.0 mm 0.00 in0.0 mm 0.00 in0.0 mm
01:38 AM 60.1°F15.6°C 57.7°F14.3°C 92% 2.0 mph NNE3.2 kmh NNE 4.0 mph6.4 kmh 29.92 in1013.2 mb 0.00 in0.0 mm 0.00 in0.0 mm 0.00 in0.0 mm
01:08 AM 61.0°F16.1°C 58.1°F14.5°C 90% 2.0 mph N3.2 kmh N 4.0 mph6.4 kmh 29.93 in1013.5 mb 0.00 in0.0 mm 0.00 in0.0 mm 0.00 in0.0 mm
12:38 AM 61.3°F16.3°C 58.5°F14.7°C 90% 0.9 mph NNE1.4 kmh NNE 5.0 mph8.0 kmh 29.93 in1013.5 mb 0.00 in0.0 mm 0.00 in0.0 mm 0.00 in0.0 mm
12:08 AM 61.5°F16.4°C 58.3°F14.6°C 89% 2.0 mph NNE3.2 kmh NNE 4.0 mph6.4 kmh 29.94 in1013.9 mb 0.00 in0.0 mm 0.00 in0.0 mm 0.00 in0.0 mm